sensor_id;sensor_type;location;lat;lon;timestamp;P1;durP1;ratioP1;P2;durP2;ratioP2
48651;SDS011;34442;52.362;-1.302;2023-09-12T00:00:39;1.75;;;1.10;;
48651;SDS011;34442;52.362;-1.302;2023-09-12T00:03:05;1.70;;;1.00;;
48651;SDS011;34442;52.362;-1.302;2023-09-12T00:05:30;1.95;;;1.05;;
48651;SDS011;34442;52.362;-1.302;2023-09-12T00:07:56;1.10;;;0.80;;
48651;SDS011;34442;52.362;-1.302;2023-09-12T00:10:21;1.48;;;0.90;;
48651;SDS011;34442;52.362;-1.302;2023-09-12T00:12:47;2.08;;;1.13;;
48651;SDS011;34442;52.362;-1.302;2023-09-12T00:15:12;1.17;;;0.95;;
48651;SDS011;34442;52.362;-1.302;2023-09-12T00:17:38;1.90;;;1.10;;
48651;SDS011;34442;52.362;-1.302;2023-09-12T00:20:03;1.65;;;1.00;;
48651;SDS011;34442;52.362;-1.302;2023-09-12T00:22:31;2.38;;;1.20;;
48651;SDS011;34442;52.362;-1.302;2023-09-12T00:24:57;2.85;;;1.58;;
48651;SDS011;34442;52.362;-1.302;2023-09-12T00:27:22;2.45;;;1.40;;
48651;SDS011;34442;52.362;-1.302;2023-09-12T00:29:48;2.30;;;1.30;;
48651;SDS011;34442;52.362;-1.302;2023-09-12T00:32:13;2.35;;;1.30;;
48651;SDS011;34442;52.362;-1.302;2023-09-12T00:34:38;2.08;;;1.20;;
48651;SDS011;34442;52.362;-1.302;2023-09-12T00:37:04;2.33;;;1.25;;
48651;SDS011;34442;52.362;-1.302;2023-09-12T00:39:29;2.33;;;1.10;;
48651;SDS011;34442;52.362;-1.302;2023-09-12T00:41:55;2.60;;;1.40;;
48651;SDS011;34442;52.362;-1.302;2023-09-12T00:44:21;2.78;;;1.40;;
48651;SDS011;34442;52.362;-1.302;2023-09-12T00:46:46;3.25;;;1.40;;
48651;SDS011;34442;52.362;-1.302;2023-09-12T00:49:15;2.85;;;1.30;;
48651;SDS011;34442;52.362;-1.302;2023-09-12T00:51:42;2.35;;;1.15;;
48651;SDS011;34442;52.362;-1.302;2023-09-12T00:54:09;2.50;;;1.30;;
48651;SDS011;34442;52.362;-1.302;2023-09-12T00:56:35;3.05;;;1.48;;
48651;SDS011;34442;52.362;-1.302;2023-09-12T00:59:01;2.00;;;1.10;;
48651;SDS011;34442;52.362;-1.302;2023-09-12T01:01:27;2.38;;;1.27;;
48651;SDS011;34442;52.362;-1.302;2023-09-12T01:03:53;2.40;;;1.20;;
48651;SDS011;34442;52.362;-1.302;2023-09-12T01:06:21;2.10;;;1.27;;
48651;SDS011;34442;52.362;-1.302;2023-09-12T01:08:48;1.90;;;1.13;;
48651;SDS011;34442;52.362;-1.302;2023-09-12T01:11:14;3.45;;;1.40;;
48651;SDS011;34442;52.362;-1.302;2023-09-12T01:13:41;2.55;;;1.00;;
48651;SDS011;34442;52.362;-1.302;2023-09-12T01:16:07;5.32;;;1.40;;
48651;SDS011;34442;52.362;-1.302;2023-09-12T01:18:32;1.75;;;1.10;;
48651;SDS011;34442;52.362;-1.302;2023-09-12T01:21:10;2.15;;;1.23;;
48651;SDS011;34442;52.362;-1.302;2023-09-12T01:24:23;2.50;;;1.20;;
48651;SDS011;34442;52.362;-1.302;2023-09-12T01:29:12;3.60;;;1.30;;
48651;SDS011;34442;52.362;-1.302;2023-09-12T01:31:38;3.05;;;1.50;;
48651;SDS011;34442;52.362;-1.302;2023-09-12T01:34:11;2.60;;;1.27;;
48651;SDS011;34442;52.362;-1.302;2023-09-12T01:36:37;3.20;;;1.48;;
48651;SDS011;34442;52.362;-1.302;2023-09-12T01:39:03;2.22;;;1.38;;
48651;SDS011;34442;52.362;-1.302;2023-09-12T01:41:29;2.05;;;1.20;;
48651;SDS011;34442;52.362;-1.302;2023-09-12T01:43:57;2.25;;;1.40;;
48651;SDS011;34442;52.362;-1.302;2023-09-12T01:46:24;2.85;;;1.23;;
48651;SDS011;34442;52.362;-1.302;2023-09-12T01:48:51;3.45;;;1.20;;
48651;SDS011;34442;52.362;-1.302;2023-09-12T01:51:19;2.13;;;1.20;;
48651;SDS011;34442;52.362;-1.302;2023-09-12T01:53:45;2.03;;;1.20;;
48651;SDS011;34442;52.362;-1.302;2023-09-12T01:56:12;2.08;;;1.30;;
48651;SDS011;34442;52.362;-1.302;2023-09-12T01:58:38;2.80;;;1.30;;
48651;SDS011;34442;52.362;-1.302;2023-09-12T02:01:04;2.65;;;1.10;;
48651;SDS011;34442;52.362;-1.302;2023-09-12T02:03:29;2.40;;;1.00;;
48651;SDS011;34442;52.362;-1.302;2023-09-12T02:05:54;2.38;;;1.27;;
48651;SDS011;34442;52.362;-1.302;2023-09-12T02:08:20;1.88;;;1.10;;
48651;SDS011;34442;52.362;-1.302;2023-09-12T02:10:45;2.35;;;1.30;;
48651;SDS011;34442;52.362;-1.302;2023-09-12T02:13:11;2.60;;;1.40;;
48651;SDS011;34442;52.362;-1.302;2023-09-12T02:15:36;2.28;;;1.33;;
48651;SDS011;34442;52.362;-1.302;2023-09-12T02:18:01;2.58;;;1.23;;
48651;SDS011;34442;52.362;-1.302;2023-09-12T02:20:28;1.70;;;1.10;;
48651;SDS011;34442;52.362;-1.302;2023-09-12T02:22:53;2.05;;;1.00;;
48651;SDS011;34442;52.362;-1.302;2023-09-12T02:25:18;1.35;;;0.90;;
48651;SDS011;34442;52.362;-1.302;2023-09-12T02:27:44;2.53;;;1.17;;
48651;SDS011;34442;52.362;-1.302;2023-09-12T02:30:09;2.20;;;1.17;;
48651;SDS011;34442;52.362;-1.302;2023-09-12T02:32:35;2.03;;;1.13;;
48651;SDS011;34442;52.362;-1.302;2023-09-12T02:35:00;2.17;;;1.00;;
48651;SDS011;34442;52.362;-1.302;2023-09-12T02:37:25;1.92;;;1.23;;
48651;SDS011;34442;52.362;-1.302;2023-09-12T02:39:51;3.10;;;1.20;;
48651;SDS011;34442;52.362;-1.302;2023-09-12T02:42:16;2.17;;;1.00;;
48651;SDS011;34442;52.362;-1.302;2023-09-12T02:44:42;2.03;;;1.10;;
48651;SDS011;34442;52.362;-1.302;2023-09-12T02:47:07;3.97;;;1.13;;
48651;SDS011;34442;52.362;-1.302;2023-09-12T02:49:32;2.65;;;1.30;;
48651;SDS011;34442;52.362;-1.302;2023-09-12T02:51:58;1.95;;;1.30;;
48651;SDS011;34442;52.362;-1.302;2023-09-12T02:54:23;1.63;;;1.02;;
48651;SDS011;34442;52.362;-1.302;2023-09-12T02:56:49;1.77;;;1.05;;
48651;SDS011;34442;52.362;-1.302;2023-09-12T02:59:14;1.23;;;0.85;;
48651;SDS011;34442;52.362;-1.302;2023-09-12T03:01:40;1.10;;;1.00;;
48651;SDS011;34442;52.362;-1.302;2023-09-12T03:04:05;1.52;;;1.00;;
48651;SDS011;34442;52.362;-1.302;2023-09-12T03:06:30;2.63;;;1.00;;
48651;SDS011;34442;52.362;-1.302;2023-09-12T03:08:56;1.95;;;1.00;;
48651;SDS011;34442;52.362;-1.302;2023-09-12T03:11:22;2.05;;;1.20;;
48651;SDS011;34442;52.362;-1.302;2023-09-12T03:13:47;1.45;;;1.00;;
48651;SDS011;34442;52.362;-1.302;2023-09-12T03:16:13;1.55;;;0.98;;
48651;SDS011;34442;52.362;-1.302;2023-09-12T03:18:39;1.83;;;1.10;;
48651;SDS011;34442;52.362;-1.302;2023-09-12T03:21:05;2.10;;;1.00;;
48651;SDS011;34442;52.362;-1.302;2023-09-12T03:23:31;0.82;;;0.80;;
48651;SDS011;34442;52.362;-1.302;2023-09-12T03:26:06;1.75;;;0.93;;
48651;SDS011;34442;52.362;-1.302;2023-09-12T03:28:31;1.42;;;0.75;;
48651;SDS011;34442;52.362;-1.302;2023-09-12T03:31:05;2.53;;;1.05;;
48651;SDS011;34442;52.362;-1.302;2023-09-12T03:33:32;1.05;;;0.88;;
48651;SDS011;34442;52.362;-1.302;2023-09-12T03:35:57;1.13;;;0.98;;
48651;SDS011;34442;52.362;-1.302;2023-09-12T03:38:26;1.75;;;1.08;;
48651;SDS011;34442;52.362;-1.302;2023-09-12T03:40:51;1.30;;;0.90;;
48651;SDS011;34442;52.362;-1.302;2023-09-12T03:43:16;0.73;;;0.73;;
48651;SDS011;34442;52.362;-1.302;2023-09-12T03:45:42;1.15;;;0.90;;
48651;SDS011;34442;52.362;-1.302;2023-09-12T03:48:07;1.45;;;0.98;;
48651;SDS011;34442;52.362;-1.302;2023-09-12T03:50:35;2.42;;;1.27;;
48651;SDS011;34442;52.362;-1.302;2023-09-12T03:53:00;0.75;;;0.75;;
48651;SDS011;34442;52.362;-1.302;2023-09-12T03:55:26;1.42;;;0.98;;
48651;SDS011;34442;52.362;-1.302;2023-09-12T03:57:52;1.55;;;0.98;;
48651;SDS011;34442;52.362;-1.302;2023-09-12T04:00:17;1.30;;;0.90;;
48651;SDS011;34442;52.362;-1.302;2023-09-12T04:02:46;1.23;;;0.70;;
48651;SDS011;34442;52.362;-1.302;2023-09-12T04:05:12;1.67;;;0.93;;
48651;SDS011;34442;52.362;-1.302;2023-09-12T04:07:37;1.85;;;1.00;;
48651;SDS011;34442;52.362;-1.302;2023-09-12T04:10:03;1.83;;;0.90;;
48651;SDS011;34442;52.362;-1.302;2023-09-12T04:12:28;1.52;;;1.08;;
48651;SDS011;34442;52.362;-1.302;2023-09-12T04:14:54;3.70;;;1.30;;
48651;SDS011;34442;52.362;-1.302;2023-09-12T04:17:22;2.67;;;1.15;;
48651;SDS011;34442;52.362;-1.302;2023-09-12T04:19:47;2.53;;;1.42;;
48651;SDS011;34442;52.362;-1.302;2023-09-12T04:22:13;2.88;;;1.50;;
48651;SDS011;34442;52.362;-1.302;2023-09-12T04:24:38;2.72;;;1.42;;
48651;SDS011;34442;52.362;-1.302;2023-09-12T04:27:04;2.60;;;1.38;;
48651;SDS011;34442;52.362;-1.302;2023-09-12T04:29:32;2.65;;;1.45;;
48651;SDS011;34442;52.362;-1.302;2023-09-12T04:31:59;3.72;;;1.75;;
48651;SDS011;34442;52.362;-1.302;2023-09-12T04:34:25;2.83;;;1.58;;
48651;SDS011;34442;52.362;-1.302;2023-09-12T04:36:50;3.13;;;1.45;;
48651;SDS011;34442;52.362;-1.302;2023-09-12T04:39:17;2.63;;;1.50;;
48651;SDS011;34442;52.362;-1.302;2023-09-12T04:41:42;2.72;;;1.50;;
48651;SDS011;34442;52.362;-1.302;2023-09-12T04:44:07;2.28;;;1.23;;
48651;SDS011;34442;52.362;-1.302;2023-09-12T04:46:33;3.10;;;1.70;;
48651;SDS011;34442;52.362;-1.302;2023-09-12T04:48:58;2.78;;;1.40;;
48651;SDS011;34442;52.362;-1.302;2023-09-12T04:51:24;2.65;;;1.45;;
48651;SDS011;34442;52.362;-1.302;2023-09-12T04:53:52;3.40;;;1.60;;
48651;SDS011;34442;52.362;-1.302;2023-09-12T04:56:17;4.25;;;1.77;;
48651;SDS011;34442;52.362;-1.302;2023-09-12T04:58:43;2.45;;;1.50;;
48651;SDS011;34442;52.362;-1.302;2023-09-12T05:01:08;2.75;;;1.50;;
48651;SDS011;34442;52.362;-1.302;2023-09-12T05:03:34;3.67;;;1.63;;
48651;SDS011;34442;52.362;-1.302;2023-09-12T05:06:00;4.55;;;1.83;;
48651;SDS011;34442;52.362;-1.302;2023-09-12T05:08:26;3.33;;;1.67;;
48651;SDS011;34442;52.362;-1.302;2023-09-12T05:10:51;2.80;;;1.60;;
48651;SDS011;34442;52.362;-1.302;2023-09-12T05:13:17;3.38;;;1.67;;
48651;SDS011;34442;52.362;-1.302;2023-09-12T05:15:43;2.92;;;1.60;;
48651;SDS011;34442;52.362;-1.302;2023-09-12T05:18:10;3.15;;;1.73;;
48651;SDS011;34442;52.362;-1.302;2023-09-12T05:20:36;3.65;;;1.67;;
48651;SDS011;34442;52.362;-1.302;2023-09-12T05:23:01;3.17;;;1.80;;
48651;SDS011;34442;52.362;-1.302;2023-09-12T05:25:27;3.58;;;1.95;;
48651;SDS011;34442;52.362;-1.302;2023-09-12T05:27:52;2.53;;;1.40;;
48651;SDS011;34442;52.362;-1.302;2023-09-12T05:30:18;3.30;;;1.70;;
48651;SDS011;34442;52.362;-1.302;2023-09-12T05:32:43;3.42;;;1.83;;
48651;SDS011;34442;52.362;-1.302;2023-09-12T05:35:08;3.42;;;1.55;;
48651;SDS011;34442;52.362;-1.302;2023-09-12T05:37:36;3.13;;;1.65;;
48651;SDS011;34442;52.362;-1.302;2023-09-12T05:40:02;3.58;;;1.90;;
48651;SDS011;34442;52.362;-1.302;2023-09-12T05:42:28;2.85;;;1.52;;
48651;SDS011;34442;52.362;-1.302;2023-09-12T05:44:54;3.60;;;1.98;;
48651;SDS011;34442;52.362;-1.302;2023-09-12T05:47:20;2.92;;;1.60;;
48651;SDS011;34442;52.362;-1.302;2023-09-12T05:49:45;3.85;;;2.00;;
48651;SDS011;34442;52.362;-1.302;2023-09-12T05:52:11;3.10;;;1.60;;
48651;SDS011;34442;52.362;-1.302;2023-09-12T05:54:37;4.32;;;2.10;;
48651;SDS011;34442;52.362;-1.302;2023-09-12T05:57:03;4.10;;;1.90;;
48651;SDS011;34442;52.362;-1.302;2023-09-12T05:59:29;3.30;;;1.80;;
48651;SDS011;34442;52.362;-1.302;2023-09-12T06:01:54;3.67;;;1.90;;
48651;SDS011;34442;52.362;-1.302;2023-09-12T06:04:20;3.38;;;1.70;;
48651;SDS011;34442;52.362;-1.302;2023-09-12T06:06:46;3.60;;;1.55;;
48651;SDS011;34442;52.362;-1.302;2023-09-12T06:09:14;3.47;;;1.98;;
48651;SDS011;34442;52.362;-1.302;2023-09-12T06:11:40;4.10;;;1.98;;
48651;SDS011;34442;52.362;-1.302;2023-09-12T06:14:05;4.18;;;1.60;;
48651;SDS011;34442;52.362;-1.302;2023-09-12T06:16:30;3.28;;;1.75;;
48651;SDS011;34442;52.362;-1.302;2023-09-12T06:18:56;3.53;;;1.88;;
48651;SDS011;34442;52.362;-1.302;2023-09-12T06:21:21;3.03;;;2.10;;
48651;SDS011;34442;52.362;-1.302;2023-09-12T06:23:47;4.10;;;2.10;;
48651;SDS011;34442;52.362;-1.302;2023-09-12T06:26:13;3.90;;;2.00;;
48651;SDS011;34442;52.362;-1.302;2023-09-12T06:28:39;3.17;;;1.80;;
48651;SDS011;34442;52.362;-1.302;2023-09-12T06:31:07;3.75;;;2.03;;
48651;SDS011;34442;52.362;-1.302;2023-09-12T06:33:34;4.03;;;1.95;;
48651;SDS011;34442;52.362;-1.302;2023-09-12T06:36:00;3.67;;;1.98;;
48651;SDS011;34442;52.362;-1.302;2023-09-12T06:38:25;2.80;;;1.63;;
48651;SDS011;34442;52.362;-1.302;2023-09-12T06:40:53;3.35;;;1.98;;
48651;SDS011;34442;52.362;-1.302;2023-09-12T06:43:20;3.67;;;1.90;;
48651;SDS011;34442;52.362;-1.302;2023-09-12T06:45:45;3.90;;;2.10;;
48651;SDS011;34442;52.362;-1.302;2023-09-12T06:48:11;4.63;;;2.33;;
48651;SDS011;34442;52.362;-1.302;2023-09-12T06:50:36;3.40;;;1.73;;
48651;SDS011;34442;52.362;-1.302;2023-09-12T06:53:04;4.53;;;2.33;;
48651;SDS011;34442;52.362;-1.302;2023-09-12T06:55:32;3.35;;;2.00;;
48651;SDS011;34442;52.362;-1.302;2023-09-12T06:58:00;3.55;;;1.67;;
48651;SDS011;34442;52.362;-1.302;2023-09-12T07:00:25;3.28;;;2.00;;
48651;SDS011;34442;52.362;-1.302;2023-09-12T07:02:51;3.33;;;1.80;;
48651;SDS011;34442;52.362;-1.302;2023-09-12T07:05:17;3.75;;;2.10;;
48651;SDS011;34442;52.362;-1.302;2023-09-12T07:07:42;4.07;;;1.98;;
48651;SDS011;34442;52.362;-1.302;2023-09-12T07:10:08;3.53;;;1.90;;
48651;SDS011;34442;52.362;-1.302;2023-09-12T07:12:33;4.50;;;1.95;;
48651;SDS011;34442;52.362;-1.302;2023-09-12T07:14:59;3.88;;;1.85;;
48651;SDS011;34442;52.362;-1.302;2023-09-12T07:17:27;3.42;;;1.92;;
48651;SDS011;34442;52.362;-1.302;2023-09-12T07:19:52;3.40;;;2.00;;
48651;SDS011;34442;52.362;-1.302;2023-09-12T07:22:18;4.10;;;2.13;;
48651;SDS011;34442;52.362;-1.302;2023-09-12T07:24:43;4.10;;;2.20;;
48651;SDS011;34442;52.362;-1.302;2023-09-12T07:27:08;3.72;;;2.10;;
48651;SDS011;34442;52.362;-1.302;2023-09-12T07:29:34;4.70;;;2.42;;
48651;SDS011;34442;52.362;-1.302;2023-09-12T07:31:59;3.83;;;2.15;;
48651;SDS011;34442;52.362;-1.302;2023-09-12T07:34:25;3.90;;;2.22;;
48651;SDS011;34442;52.362;-1.302;2023-09-12T07:36:50;3.55;;;2.10;;
48651;SDS011;34442;52.362;-1.302;2023-09-12T07:39:16;3.80;;;2.08;;
48651;SDS011;34442;52.362;-1.302;2023-09-12T07:41:42;4.10;;;2.10;;
48651;SDS011;34442;52.362;-1.302;2023-09-12T07:44:07;4.10;;;2.20;;
48651;SDS011;34442;52.362;-1.302;2023-09-12T07:46:36;4.00;;;2.30;;
48651;SDS011;34442;52.362;-1.302;2023-09-12T07:49:01;4.22;;;2.20;;
48651;SDS011;34442;52.362;-1.302;2023-09-12T07:51:26;4.80;;;2.95;;
48651;SDS011;34442;52.362;-1.302;2023-09-12T07:53:52;3.70;;;2.15;;
48651;SDS011;34442;52.362;-1.302;2023-09-12T07:56:17;4.38;;;2.50;;
48651;SDS011;34442;52.362;-1.302;2023-09-12T07:58:43;3.35;;;1.90;;
48651;SDS011;34442;52.362;-1.302;2023-09-12T08:01:08;4.85;;;2.10;;
48651;SDS011;34442;52.362;-1.302;2023-09-12T08:03:35;4.70;;;2.50;;
48651;SDS011;34442;52.362;-1.302;2023-09-12T08:06:01;4.07;;;2.20;;
48651;SDS011;34442;52.362;-1.302;2023-09-12T08:08:28;3.35;;;2.00;;
48651;SDS011;34442;52.362;-1.302;2023-09-12T08:10:54;4.32;;;2.22;;
48651;SDS011;34442;52.362;-1.302;2023-09-12T08:13:19;3.58;;;2.03;;
48651;SDS011;34442;52.362;-1.302;2023-09-12T08:15:47;3.60;;;1.90;;
48651;SDS011;34442;52.362;-1.302;2023-09-12T08:18:13;4.18;;;2.10;;
48651;SDS011;34442;52.362;-1.302;2023-09-12T08:20:38;4.10;;;1.90;;
48651;SDS011;34442;52.362;-1.302;2023-09-12T08:23:04;3.80;;;1.95;;
48651;SDS011;34442;52.362;-1.302;2023-09-12T08:25:30;3.70;;;1.80;;
48651;SDS011;34442;52.362;-1.302;2023-09-12T08:27:55;3.63;;;1.80;;
48651;SDS011;34442;52.362;-1.302;2023-09-12T08:30:21;3.10;;;1.60;;
48651;SDS011;34442;52.362;-1.302;2023-09-12T08:32:46;3.65;;;1.92;;
48651;SDS011;34442;52.362;-1.302;2023-09-12T08:35:12;3.30;;;1.55;;
48651;SDS011;34442;52.362;-1.302;2023-09-12T08:37:42;3.08;;;1.60;;
48651;SDS011;34442;52.362;-1.302;2023-09-12T08:40:08;3.50;;;1.88;;
48651;SDS011;34442;52.362;-1.302;2023-09-12T08:42:43;3.45;;;1.58;;
48651;SDS011;34442;52.362;-1.302;2023-09-12T08:45:13;3.90;;;2.08;;
48651;SDS011;34442;52.362;-1.302;2023-09-12T08:47:40;3.90;;;1.80;;
48651;SDS011;34442;52.362;-1.302;2023-09-12T08:50:16;2.67;;;1.50;;
48651;SDS011;34442;52.362;-1.302;2023-09-12T08:52:42;2.55;;;1.50;;
48651;SDS011;34442;52.362;-1.302;2023-09-12T08:55:08;3.42;;;1.60;;
48651;SDS011;34442;52.362;-1.302;2023-09-12T08:57:35;2.47;;;1.50;;
48651;SDS011;34442;52.362;-1.302;2023-09-12T09:00:04;2.92;;;1.50;;
48651;SDS011;34442;52.362;-1.302;2023-09-12T09:02:37;2.20;;;1.20;;
48651;SDS011;34442;52.362;-1.302;2023-09-12T09:05:03;2.65;;;1.48;;
48651;SDS011;34442;52.362;-1.302;2023-09-12T09:07:31;2.90;;;1.40;;
48651;SDS011;34442;52.362;-1.302;2023-09-12T09:10:01;3.78;;;1.95;;
48651;SDS011;34442;52.362;-1.302;2023-09-12T09:12:29;2.88;;;1.60;;
48651;SDS011;34442;52.362;-1.302;2023-09-12T09:14:54;3.05;;;1.45;;
48651;SDS011;34442;52.362;-1.302;2023-09-12T09:17:19;2.35;;;1.38;;
48651;SDS011;34442;52.362;-1.302;2023-09-12T09:19:45;2.78;;;1.60;;
48651;SDS011;34442;52.362;-1.302;2023-09-12T09:22:11;3.00;;;1.48;;
48651;SDS011;34442;52.362;-1.302;2023-09-12T09:24:36;3.05;;;1.52;;
48651;SDS011;34442;52.362;-1.302;2023-09-12T09:27:02;3.17;;;1.73;;
48651;SDS011;34442;52.362;-1.302;2023-09-12T09:29:28;2.70;;;1.33;;
48651;SDS011;34442;52.362;-1.302;2023-09-12T09:31:57;2.47;;;1.40;;
48651;SDS011;34442;52.362;-1.302;2023-09-12T09:34:24;2.33;;;1.30;;
48651;SDS011;34442;52.362;-1.302;2023-09-12T09:36:53;2.70;;;1.45;;
48651;SDS011;34442;52.362;-1.302;2023-09-12T09:39:21;2.33;;;1.30;;
48651;SDS011;34442;52.362;-1.302;2023-09-12T09:41:48;2.33;;;1.60;;
48651;SDS011;34442;52.362;-1.302;2023-09-12T09:44:15;4.05;;;1.40;;
48651;SDS011;34442;52.362;-1.302;2023-09-12T09:46:45;1.85;;;1.10;;
48651;SDS011;34442;52.362;-1.302;2023-09-12T09:49:11;2.10;;;1.17;;
48651;SDS011;34442;52.362;-1.302;2023-09-12T09:51:42;3.20;;;1.45;;
48651;SDS011;34442;52.362;-1.302;2023-09-12T09:54:08;1.77;;;1.13;;
48651;SDS011;34442;52.362;-1.302;2023-09-12T09:56:55;1.33;;;1.00;;
48651;SDS011;34442;52.362;-1.302;2023-09-12T09:59:21;2.17;;;1.27;;
48651;SDS011;34442;52.362;-1.302;2023-09-12T10:01:48;2.63;;;1.42;;
48651;SDS011;34442;52.362;-1.302;2023-09-12T10:04:15;2.03;;;1.27;;
48651;SDS011;34442;52.362;-1.302;2023-09-12T10:06:42;3.60;;;1.30;;
48651;SDS011;34442;52.362;-1.302;2023-09-12T10:09:09;3.28;;;1.80;;
48651;SDS011;34442;52.362;-1.302;2023-09-12T10:11:38;2.25;;;1.40;;
48651;SDS011;34442;52.362;-1.302;2023-09-12T10:14:05;2.75;;;1.30;;
48651;SDS011;34442;52.362;-1.302;2023-09-12T10:16:50;3.20;;;1.58;;
48651;SDS011;34442;52.362;-1.302;2023-09-12T10:19:23;2.28;;;1.30;;
48651;SDS011;34442;52.362;-1.302;2023-09-12T10:21:59;2.17;;;1.20;;
48651;SDS011;34442;52.362;-1.302;2023-09-12T10:24:28;3.08;;;1.38;;
48651;SDS011;34442;52.362;-1.302;2023-09-12T10:26:55;2.70;;;1.33;;
48651;SDS011;34442;52.362;-1.302;2023-09-12T10:29:22;2.55;;;1.20;;
48651;SDS011;34442;52.362;-1.302;2023-09-12T10:31:48;2.88;;;1.30;;
48651;SDS011;34442;52.362;-1.302;2023-09-12T10:34:14;2.53;;;1.35;;
48651;SDS011;34442;52.362;-1.302;2023-09-12T10:36:40;3.67;;;1.50;;
48651;SDS011;34442;52.362;-1.302;2023-09-12T10:39:06;1.63;;;1.02;;
48651;SDS011;34442;52.362;-1.302;2023-09-12T10:41:35;2.65;;;1.40;;
48651;SDS011;34442;52.362;-1.302;2023-09-12T10:44:05;2.53;;;1.40;;
48651;SDS011;34442;52.362;-1.302;2023-09-12T10:46:35;2.58;;;1.20;;
48651;SDS011;34442;52.362;-1.302;2023-09-12T10:49:03;3.60;;;1.50;;
48651;SDS011;34442;52.362;-1.302;2023-09-12T10:51:31;2.42;;;1.23;;
48651;SDS011;34442;52.362;-1.302;2023-09-12T10:53:57;1.77;;;1.08;;
48651;SDS011;34442;52.362;-1.302;2023-09-12T10:56:22;1.95;;;1.08;;
48651;SDS011;34442;52.362;-1.302;2023-09-12T11:01:32;2.03;;;1.20;;
48651;SDS011;34442;52.362;-1.302;2023-09-12T11:03:59;2.38;;;1.13;;
48651;SDS011;34442;52.362;-1.302;2023-09-12T11:06:52;2.60;;;1.15;;
48651;SDS011;34442;52.362;-1.302;2023-09-12T11:11:48;2.30;;;1.30;;
48651;SDS011;34442;52.362;-1.302;2023-09-12T11:14:19;2.10;;;1.17;;
48651;SDS011;34442;52.362;-1.302;2023-09-12T11:17:27;2.50;;;1.27;;
48651;SDS011;34442;52.362;-1.302;2023-09-12T11:19:43;2.35;;;1.20;;
48651;SDS011;34442;52.362;-1.302;2023-09-12T11:24:52;2.08;;;1.17;;
48651;SDS011;34442;52.362;-1.302;2023-09-12T11:27:18;2.05;;;1.10;;
48651;SDS011;34442;52.362;-1.302;2023-09-12T11:29:44;2.05;;;1.00;;
48651;SDS011;34442;52.362;-1.302;2023-09-12T11:32:10;2.25;;;1.05;;
48651;SDS011;34442;52.362;-1.302;2023-09-12T11:34:51;2.50;;;1.35;;
48651;SDS011;34442;52.362;-1.302;2023-09-12T11:37:26;1.67;;;1.15;;
48651;SDS011;34442;52.362;-1.302;2023-09-12T11:39:53;1.70;;;0.90;;
48651;SDS011;34442;52.362;-1.302;2023-09-12T11:42:19;1.98;;;1.02;;
48651;SDS011;34442;52.362;-1.302;2023-09-12T11:44:48;2.45;;;1.30;;
48651;SDS011;34442;52.362;-1.302;2023-09-12T11:47:14;1.60;;;1.00;;
48651;SDS011;34442;52.362;-1.302;2023-09-12T11:49:40;1.50;;;1.00;;
48651;SDS011;34442;52.362;-1.302;2023-09-12T11:52:10;0.90;;;0.80;;
48651;SDS011;34442;52.362;-1.302;2023-09-12T11:54:38;2.03;;;1.10;;
48651;SDS011;34442;52.362;-1.302;2023-09-12T11:57:04;1.77;;;1.00;;
48651;SDS011;34442;52.362;-1.302;2023-09-12T11:59:32;1.08;;;0.80;;
48651;SDS011;34442;52.362;-1.302;2023-09-12T12:02:01;1.13;;;0.93;;
48651;SDS011;34442;52.362;-1.302;2023-09-12T12:04:31;1.52;;;0.90;;
48651;SDS011;34442;52.362;-1.302;2023-09-12T12:06:57;1.30;;;1.00;;
48651;SDS011;34442;52.362;-1.302;2023-09-12T12:09:23;1.90;;;1.05;;
48651;SDS011;34442;52.362;-1.302;2023-09-12T12:11:49;1.80;;;0.90;;
48651;SDS011;34442;52.362;-1.302;2023-09-12T12:14:16;1.42;;;0.98;;
48651;SDS011;34442;52.362;-1.302;2023-09-12T12:16:42;2.13;;;0.90;;
48651;SDS011;34442;52.362;-1.302;2023-09-12T12:19:09;1.40;;;0.80;;
48651;SDS011;34442;52.362;-1.302;2023-09-12T12:21:36;1.67;;;0.90;;
48651;SDS011;34442;52.362;-1.302;2023-09-12T12:24:07;1.55;;;0.90;;
48651;SDS011;34442;52.362;-1.302;2023-09-12T12:26:37;1.55;;;1.00;;
48651;SDS011;34442;52.362;-1.302;2023-09-12T12:29:06;1.60;;;0.90;;
48651;SDS011;34442;52.362;-1.302;2023-09-12T12:31:31;1.10;;;0.77;;
48651;SDS011;34442;52.362;-1.302;2023-09-12T12:33:56;1.00;;;0.73;;
48651;SDS011;34442;52.362;-1.302;2023-09-12T12:36:22;1.90;;;0.90;;
48651;SDS011;34442;52.362;-1.302;2023-09-12T12:38:49;1.02;;;0.80;;
48651;SDS011;34442;52.362;-1.302;2023-09-12T12:41:15;0.98;;;0.75;;
48651;SDS011;34442;52.362;-1.302;2023-09-12T12:43:42;1.60;;;0.90;;
48651;SDS011;34442;52.362;-1.302;2023-09-12T12:46:11;1.33;;;0.80;;
48651;SDS011;34442;52.362;-1.302;2023-09-12T12:48:38;0.77;;;0.70;;
48651;SDS011;34442;52.362;-1.302;2023-09-12T12:51:13;1.48;;;0.80;;
48651;SDS011;34442;52.362;-1.302;2023-09-12T12:53:44;1.40;;;0.80;;
48651;SDS011;34442;52.362;-1.302;2023-09-12T12:56:15;1.15;;;0.70;;
48651;SDS011;34442;52.362;-1.302;2023-09-12T12:58:56;1.15;;;0.70;;
48651;SDS011;34442;52.362;-1.302;2023-09-12T13:01:24;0.95;;;0.68;;
48651;SDS011;34442;52.362;-1.302;2023-09-12T13:03:50;1.20;;;0.90;;
48651;SDS011;34442;52.362;-1.302;2023-09-12T13:06:16;1.52;;;0.80;;
48651;SDS011;34442;52.362;-1.302;2023-09-12T13:08:43;1.02;;;0.60;;
48651;SDS011;34442;52.362;-1.302;2023-09-12T13:11:11;1.42;;;0.68;;
48651;SDS011;34442;52.362;-1.302;2023-09-12T13:13:37;0.65;;;0.55;;
48651;SDS011;34442;52.362;-1.302;2023-09-12T13:16:08;0.80;;;0.63;;
48651;SDS011;34442;52.362;-1.302;2023-09-12T13:18:35;0.47;;;0.40;;
48651;SDS011;34442;52.362;-1.302;2023-09-12T13:21:02;0.43;;;0.40;;
48651;SDS011;34442;52.362;-1.302;2023-09-12T13:23:28;0.57;;;0.50;;
48651;SDS011;34442;52.362;-1.302;2023-09-12T13:26:05;0.55;;;0.52;;
48651;SDS011;34442;52.362;-1.302;2023-09-12T13:28:35;0.82;;;0.50;;
48651;SDS011;34442;52.362;-1.302;2023-09-12T13:31:03;0.55;;;0.55;;
48651;SDS011;34442;52.362;-1.302;2023-09-12T13:33:29;0.82;;;0.60;;
48651;SDS011;34442;52.362;-1.302;2023-09-12T13:35:54;0.63;;;0.60;;
48651;SDS011;34442;52.362;-1.302;2023-09-12T13:38:20;0.73;;;0.70;;
48651;SDS011;34442;52.362;-1.302;2023-09-12T13:40:47;0.47;;;0.47;;
48651;SDS011;34442;52.362;-1.302;2023-09-12T13:43:13;1.27;;;0.70;;
48651;SDS011;34442;52.362;-1.302;2023-09-12T13:45:39;1.27;;;1.00;;
48651;SDS011;34442;52.362;-1.302;2023-09-12T13:48:05;1.00;;;0.82;;
48651;SDS011;34442;52.362;-1.302;2023-09-12T13:50:31;0.77;;;0.60;;
48651;SDS011;34442;52.362;-1.302;2023-09-12T13:53:00;0.47;;;0.47;;
48651;SDS011;34442;52.362;-1.302;2023-09-12T13:55:34;1.17;;;0.70;;
48651;SDS011;34442;52.362;-1.302;2023-09-12T13:58:01;0.50;;;0.50;;
48651;SDS011;34442;52.362;-1.302;2023-09-12T14:00:32;1.15;;;0.77;;
48651;SDS011;34442;52.362;-1.302;2023-09-12T14:02:58;0.70;;;0.60;;
48651;SDS011;34442;52.362;-1.302;2023-09-12T14:05:24;1.02;;;0.55;;
48651;SDS011;34442;52.362;-1.302;2023-09-12T14:07:50;0.60;;;0.57;;
48651;SDS011;34442;52.362;-1.302;2023-09-12T14:10:16;0.50;;;0.50;;
48651;SDS011;34442;52.362;-1.302;2023-09-12T14:12:43;0.47;;;0.47;;
48651;SDS011;34442;52.362;-1.302;2023-09-12T14:15:09;0.50;;;0.50;;
48651;SDS011;34442;52.362;-1.302;2023-09-12T14:17:36;0.63;;;0.47;;
48651;SDS011;34442;52.362;-1.302;2023-09-12T14:20:01;0.50;;;0.50;;
48651;SDS011;34442;52.362;-1.302;2023-09-12T14:22:27;0.47;;;0.40;;
48651;SDS011;34442;52.362;-1.302;2023-09-12T14:24:54;0.43;;;0.43;;
48651;SDS011;34442;52.362;-1.302;2023-09-12T14:27:19;0.70;;;0.45;;
48651;SDS011;34442;52.362;-1.302;2023-09-12T14:29:45;0.75;;;0.75;;
48651;SDS011;34442;52.362;-1.302;2023-09-12T14:32:13;1.20;;;0.70;;
48651;SDS011;34442;52.362;-1.302;2023-09-12T14:34:39;0.70;;;0.70;;
48651;SDS011;34442;52.362;-1.302;2023-09-12T14:37:04;0.95;;;0.70;;
48651;SDS011;34442;52.362;-1.302;2023-09-12T14:39:30;0.82;;;0.60;;
48651;SDS011;34442;52.362;-1.302;2023-09-12T14:41:55;1.20;;;0.80;;